Tropical Cyclones
[Index]
Main Index Home Page Stock Weather Photos Extreme Storms Discussion Storm News and Storm Chasing Reports Tropical Cyclones / Hurricanes / Typhoons Weather Data and Links Wild Fires / Bushfires Weather Observation Techniques Weather Picture Catalogue Tornado Pictures and Reports Stock Video Footage and DVDs for sale
Season 2006-2007 Tropical Cyclone 200704 Track Map
Season 2006-2007 Summaries (Operational Data): [AU] [SIO] [SPAC] [SH]
<<- Previous TC | 2006-2007 Season | Next TC ->>

click for intensity scale information  Lat/long Grid: Show Hide

 Date Labels: Show Hide

Operational Tropical Cyclone Data : JTWC Advisories

Name: 200704
Number: 0704

29 Nov 2006 09:00 UTC to 04 Dec 2006 21:00 UTC

    date/time    lat    long     hPa   cat  kts
2006-11-29 09    6.0   166.0    1004         20          
2006-11-29 18    8.0   164.5    1003         25          
2006-11-29 21    8.4   164.2    1004         25          
2006-11-30 04    7.5   164.5    1000         30          
2006-11-30 06    7.7   164.0     999         30          
2006-11-30 12    9.0   163.9     998         30          
2006-11-30 18    9.0   162.8     998         30          
2006-12-01 00   10.7   163.8     999         30          
2006-12-01 06   11.2   164.5     999         30          
2006-12-01 12   11.8   164.9     999         30          
2006-12-01 18   11.5   164.0     999         30          
2006-12-02 00   12.3   164.9     997         30          
2006-12-02 06   12.6   164.9     998         30          
2006-12-02 12   12.7   164.9     999         30          
2006-12-02 18   13.5   164.7     999         30          
2006-12-02 21   13.8   163.5    1002         30          
2006-12-03 06   14.0   163.0    1002         25          
2006-12-03 18   14.5   162.0    1004         25          
2006-12-04 06   14.0   161.0    1004         25          
2006-12-04 18   14.0   160.0    1004         25          
2006-12-04 21   14.0   161.0    1004         25          
Winds are 10-min average.

Tropical cyclone tracks developed by Michael Bath using operational warnings and advisories and Google Maps.


[Australian Severe Weather index] [Copyright Notice] [Email Contacts] [Search This Site] [Privacy Policy]
Document: tropical_cyclone_200704.htm Updated: 28 May 2013